createdAt,value
2019-03-21T00:02:20.002Z,100454.42
2019-03-21T00:04:53.134Z,100458.11
2019-03-21T00:07:22.761Z,100456.38
2019-03-21T00:10:29.677Z,100460.96
2019-03-21T00:12:59.635Z,100466.12
2019-03-21T00:15:33.810Z,100459.01
2019-03-21T00:18:06.816Z,100458.32
2019-03-21T00:20:36.850Z,100462.05
2019-03-21T00:23:06.511Z,100462.12
2019-03-21T00:25:36.519Z,100461.91
2019-03-21T00:28:06.176Z,100455.96
2019-03-21T00:30:35.768Z,100455.67
2019-03-21T00:33:05.454Z,100455.50
2019-03-21T00:35:35.104Z,100464.95
2019-03-21T00:38:04.735Z,100466.12
2019-03-21T00:40:37.245Z,100469.64
2019-03-21T00:43:08.644Z,100472.91
2019-03-21T00:45:38.334Z,100479.49
2019-03-21T00:48:10.042Z,100470.86
2019-03-21T00:50:39.671Z,100468.50
2019-03-21T00:53:09.334Z,100456.50
2019-03-21T00:55:39.697Z,100455.86
2019-03-21T00:58:09.392Z,100450.30
2019-03-21T01:00:44.782Z,100449.81
2019-03-21T01:03:15.024Z,100450.09
2019-03-21T01:05:44.918Z,100450.84
2019-03-21T01:08:14.569Z,100450.90
2019-03-21T01:10:44.215Z,100446.26
2019-03-21T01:13:13.999Z,100441.42
2019-03-21T01:15:43.649Z,100446.20
2019-03-21T01:18:13.189Z,100441.38
2019-03-21T01:20:42.820Z,100432.90
2019-03-21T01:23:12.368Z,100436.39
2019-03-21T01:25:45.411Z,100436.58
2019-03-21T01:28:15.024Z,100435.59
2019-03-21T01:30:44.693Z,100431.86
2019-03-21T01:33:14.325Z,100438.95
2019-03-21T01:35:44.162Z,100442.16
2019-03-21T01:38:13.772Z,100435.97
2019-03-21T01:40:44.676Z,100435.38
2019-03-21T01:43:14.316Z,100435.88
2019-03-21T01:45:44.064Z,100436.42
2019-03-21T01:48:13.684Z,100428.72
2019-03-21T01:50:43.340Z,100427.33
2019-03-21T01:53:12.952Z,100424.46
2019-03-21T01:55:42.596Z,100413.25
2019-03-21T01:58:12.206Z,100413.41
2019-03-21T02:00:41.870Z,100413.83
2019-03-21T02:03:11.397Z,100409.27
2019-03-21T02:05:41.391Z,100407.41
2019-03-21T02:08:10.998Z,100408.07
2019-03-21T02:10:40.558Z,100402.45
2019-03-21T02:13:10.170Z,100403.66
2019-03-21T02:15:40.831Z,100400.28
2019-03-21T02:18:10.572Z,100402.00
2019-03-21T02:20:40.124Z,100397.40
2019-03-21T02:23:09.653Z,100395.22
2019-03-21T02:25:39.317Z,100393.29
2019-03-21T02:28:08.932Z,100397.38
2019-03-21T02:30:38.779Z,100396.27
2019-03-21T02:33:12.303Z,100390.03
2019-03-21T02:35:41.962Z,100393.41
2019-03-21T02:38:11.583Z,100391.75
2019-03-21T02:40:41.253Z,100391.23
2019-03-21T02:43:10.741Z,100390.89
2019-03-21T02:45:40.572Z,100395.50
2019-03-21T02:48:10.205Z,100389.97
2019-03-21T02:50:39.859Z,100390.89
2019-03-21T02:53:09.472Z,100393.07
2019-03-21T02:55:39.120Z,100396.30
2019-03-21T02:58:08.724Z,100389.42
2019-03-21T03:00:38.401Z,100396.58
2019-03-21T03:03:09.046Z,100394.23
2019-03-21T03:05:38.691Z,100394.70
2019-03-21T03:08:08.555Z,100396.81
2019-03-21T03:10:41.039Z,100390.67
2019-03-21T03:13:10.643Z,100385.33
2019-03-21T03:15:40.309Z,100382.67
2019-03-21T03:18:10.180Z,100386.08
2019-03-21T03:20:39.823Z,100386.66
2019-03-21T03:23:09.452Z,100386.14
2019-03-21T03:25:39.124Z,100389.44
2019-03-21T03:28:20.226Z,100388.66
2019-03-21T03:30:50.147Z,100388.08
2019-03-21T03:33:19.745Z,100395.53
2019-03-21T03:35:49.406Z,100388.04
2019-03-21T03:38:18.929Z,100384.28
2019-03-21T03:40:51.251Z,100378.70
2019-03-21T03:43:20.860Z,100372.67
2019-03-21T03:45:50.553Z,100382.70
2019-03-21T03:48:20.393Z,100381.36
2019-03-21T03:50:50.021Z,100384.08
2019-03-21T03:53:19.743Z,100386.28
2019-03-21T03:55:49.485Z,100386.60
2019-03-21T03:58:20.118Z,100395.53
2019-03-21T04:00:49.736Z,100398.34
2019-03-21T04:03:19.716Z,100395.36
2019-03-21T04:05:49.341Z,100393.88
2019-03-21T04:08:19.418Z,100397.57
2019-03-21T04:10:49.154Z,100396.71
2019-03-21T04:13:18.860Z,100397.92
2019-03-21T04:15:53.168Z,100393.16
2019-03-21T04:18:20.070Z,100398.92
2019-03-21T04:20:49.991Z,100404.72
2019-03-21T04:23:20.110Z,100409.39
2019-03-21T04:25:55.805Z,100403.22
2019-03-21T04:28:25.436Z,100396.31
2019-03-21T04:30:55.044Z,100396.10
2019-03-21T04:33:24.894Z,100402.71
2019-03-21T04:35:54.507Z,100406.06
2019-03-21T04:38:24.515Z,100401.27
2019-03-21T04:40:54.188Z,100396.57
2019-03-21T04:43:24.017Z,100396.52
2019-03-21T04:46:02.808Z,100404.60
2019-03-21T04:48:25.009Z,100400.07
2019-03-21T04:50:54.562Z,100404.66
2019-03-21T04:53:24.206Z,100411.17
2019-03-21T04:55:53.862Z,100406.75
2019-03-21T04:58:23.474Z,100402.71
2019-03-21T05:00:53.189Z,100401.12
2019-03-21T05:03:23.993Z,100405.43
2019-03-21T05:05:53.583Z,100404.17
2019-03-21T05:08:23.201Z,100403.77
2019-03-21T05:10:52.813Z,100403.00
2019-03-21T05:13:22.395Z,100409.63
2019-03-21T05:15:52.097Z,100406.58
2019-03-21T05:18:25.602Z,100403.54
2019-03-21T05:20:55.350Z,100401.75
2019-03-21T05:23:24.996Z,100398.17
2019-03-21T05:25:54.763Z,100410.33
2019-03-21T05:28:24.577Z,100410.20
2019-03-21T05:31:03.223Z,100410.70
2019-03-21T05:33:33.584Z,100406.41
2019-03-21T05:36:03.268Z,100407.38
2019-03-21T05:38:33.246Z,100421.36
2019-03-21T05:41:02.892Z,100410.13
2019-03-21T05:43:39.199Z,100416.66
2019-03-21T05:46:09.003Z,100415.70
2019-03-21T05:48:38.695Z,100419.48
2019-03-21T05:51:08.193Z,100426.09
2019-03-21T05:53:38.381Z,100422.71
2019-03-21T05:56:08.457Z,100425.70
2019-03-21T05:58:38.139Z,100423.85
2019-03-21T06:01:07.819Z,100432.30
2019-03-21T06:03:46.960Z,100433.34
2019-03-21T06:06:20.710Z,100440.51
2019-03-21T06:08:50.406Z,100448.91
2019-03-21T06:11:20.176Z,100451.89
2019-03-21T06:13:49.704Z,100443.86
2019-03-21T06:16:19.533Z,100446.16
2019-03-21T06:19:03.365Z,100446.67
2019-03-21T06:21:50.838Z,100445.05
2019-03-21T06:24:51.451Z,100450.69
2019-03-21T06:27:38.317Z,100454.39
2019-03-21T06:30:10.008Z,100454.62
2019-03-21T06:32:39.780Z,100456.34
2019-03-21T06:35:24.852Z,100462.03
2019-03-21T06:37:54.741Z,100466.63
2019-03-21T06:40:24.350Z,100465.48
2019-03-21T06:42:54.258Z,100471.99
2019-03-21T06:45:23.923Z,100478.34
2019-03-21T06:47:53.481Z,100471.77
2019-03-21T06:50:23.146Z,100473.22
2019-03-21T06:52:52.763Z,100469.78
2019-03-21T06:55:22.702Z,100472.98
2019-03-21T06:57:52.359Z,100479.47
2019-03-21T07:00:21.969Z,100479.09
2019-03-21T07:02:51.548Z,100479.95
2019-03-21T07:05:21.563Z,100476.64
2019-03-21T07:07:51.165Z,100479.17
2019-03-21T07:10:20.822Z,100477.91
2019-03-21T07:12:50.686Z,100474.08
2019-03-21T07:15:20.325Z,100484.72
2019-03-21T07:17:49.875Z,100486.84
2019-03-21T07:20:19.450Z,100481.79
2019-03-21T07:22:49.121Z,100474.33
2019-03-21T07:25:18.789Z,100469.84
2019-03-21T07:27:48.425Z,100467.96
2019-03-21T07:30:18.474Z,100474.17
2019-03-21T07:32:48.166Z,100474.53
2019-03-21T07:35:17.830Z,100468.63
2019-03-21T07:37:47.649Z,100467.09
2019-03-21T07:40:17.262Z,100468.17
2019-03-21T07:42:46.910Z,100468.02
2019-03-21T07:45:17.448Z,100474.20
2019-03-21T07:47:47.152Z,100466.33
2019-03-21T07:50:16.867Z,100470.77
2019-03-21T07:52:46.524Z,100476.00
2019-03-21T07:55:16.169Z,100470.41
2019-03-21T07:57:46.012Z,100467.42
2019-03-21T08:00:16.118Z,100470.38
2019-03-21T08:02:45.805Z,100471.02
2019-03-21T08:05:15.723Z,100469.51
2019-03-21T08:07:45.222Z,100481.61
2019-03-21T08:10:14.909Z,100477.49
2019-03-21T08:12:44.533Z,100476.98
2019-03-21T08:15:14.254Z,100477.49
2019-03-21T08:17:44.234Z,100472.38
2019-03-21T08:20:14.201Z,100473.98
2019-03-21T08:22:43.797Z,100477.65
2019-03-21T08:25:13.498Z,100478.09
2019-03-21T08:27:43.213Z,100468.76
2019-03-21T08:30:34.723Z,100468.76
2019-03-21T08:33:04.676Z,100479.59
2019-03-21T08:35:34.341Z,100479.59
2019-03-21T08:38:03.960Z,100481.11
2019-03-21T08:40:33.601Z,100482.22
2019-03-21T08:43:22.127Z,100472.38
2019-03-21T08:45:51.861Z,100469.95
2019-03-21T08:48:21.550Z,100469.95
2019-03-21T08:50:51.334Z,100467.76
2019-03-21T08:53:21.011Z,100469.29
2019-03-21T08:55:50.713Z,100455.95
2019-03-21T08:58:20.416Z,100465.23
2019-03-21T09:00:51.950Z,100460.33
2019-03-21T09:03:21.617Z,100460.33
2019-03-21T09:05:51.464Z,100465.31
2019-03-21T09:08:21.146Z,100455.58
2019-03-21T09:10:50.935Z,100458.54
2019-03-21T09:13:20.641Z,100458.54
2019-03-21T09:15:50.681Z,100452.41
2019-03-21T09:18:20.337Z,100455.94
2019-03-21T09:20:50.137Z,100446.43
2019-03-21T09:23:19.832Z,100449.18
2019-03-21T09:25:51.377Z,100448.31
2019-03-21T09:28:21.034Z,100448.31
2019-03-21T09:30:50.961Z,100448.08
2019-03-21T09:33:20.943Z,100448.00
2019-03-21T09:35:50.967Z,100447.03
2019-03-21T09:38:20.633Z,100441.27
2019-03-21T09:40:50.430Z,100445.69
2019-03-21T09:43:20.113Z,100442.06
2019-03-21T09:45:49.808Z,100443.50
2019-03-21T09:48:19.551Z,100446.86
2019-03-21T09:50:49.247Z,100446.33
2019-03-21T09:53:18.957Z,100445.75
2019-03-21T09:55:48.650Z,100451.20
2019-03-21T09:58:18.343Z,100448.59
2019-03-21T10:00:47.987Z,100451.36
2019-03-21T10:03:17.699Z,100451.47
2019-03-21T10:05:47.526Z,100450.33
2019-03-21T10:08:17.184Z,100450.25
2019-03-21T10:10:46.887Z,100447.77
2019-03-21T10:13:16.561Z,100450.95
2019-03-21T10:15:46.285Z,100443.20
2019-03-21T10:18:15.950Z,100451.67
2019-03-21T10:20:45.898Z,100442.20
2019-03-21T10:23:15.575Z,100440.69
2019-03-21T10:25:45.305Z,100435.70
2019-03-21T10:28:15.001Z,100435.27
2019-03-21T10:30:44.659Z,100434.78
2019-03-21T10:33:15.356Z,100436.12
2019-03-21T10:35:45.146Z,100429.83
2019-03-21T10:38:14.867Z,100427.47
2019-03-21T10:40:44.710Z,100425.08
2019-03-21T10:43:14.696Z,100431.98
2019-03-21T10:45:44.386Z,100430.37
2019-03-21T10:48:14.052Z,100423.66
2019-03-21T10:50:43.820Z,100418.02
2019-03-21T10:53:13.526Z,100424.34
2019-03-21T10:55:43.325Z,100417.05
2019-03-21T10:58:13.092Z,100423.46
2019-03-21T11:00:42.859Z,100420.16
2019-03-21T11:03:12.559Z,100410.64
2019-03-21T11:05:42.554Z,100412.36
2019-03-21T11:08:12.272Z,100412.48
2019-03-21T11:10:41.933Z,100410.05
2019-03-21T11:13:11.629Z,100410.47
2019-03-21T11:15:41.289Z,100409.45
2019-03-21T11:18:11.085Z,100404.25
2019-03-21T11:20:41.385Z,100396.16
2019-03-21T11:23:11.287Z,100396.70
2019-03-21T11:25:41.128Z,100397.73
2019-03-21T11:28:11.285Z,100394.44
2019-03-21T11:30:42.491Z,100394.73
2019-03-21T11:33:12.720Z,100391.79
2019-03-21T11:35:42.497Z,100384.34
2019-03-21T11:38:12.409Z,100379.44
2019-03-21T11:40:42.191Z,100385.93
2019-03-21T11:43:14.008Z,100376.91
2019-03-21T11:45:43.823Z,100370.50
2019-03-21T11:48:13.521Z,100360.20
2019-03-21T11:50:43.422Z,100363.48
2019-03-21T11:53:13.096Z,100358.73
2019-03-21T11:55:42.835Z,100365.06
2019-03-21T11:58:18.668Z,100367.01
2019-03-21T12:00:55.365Z,100363.74
2019-03-21T12:03:25.174Z,100358.84
2019-03-21T12:05:55.598Z,100360.88
2019-03-21T12:08:25.489Z,100353.95
2019-03-21T12:10:55.201Z,100357.47
2019-03-21T12:13:25.042Z,100356.64
2019-03-21T12:15:54.781Z,100351.39
2019-03-21T12:18:24.509Z,100349.69
2019-03-21T12:20:54.234Z,100343.09
2019-03-21T12:23:24.000Z,100339.63
2019-03-21T12:25:53.965Z,100348.55
2019-03-21T12:28:59.564Z,100343.79
2019-03-21T12:31:29.997Z,100349.86
2019-03-21T12:33:59.687Z,100343.91
2019-03-21T12:36:29.574Z,100335.45
2019-03-21T12:38:59.822Z,100334.46
2019-03-21T12:41:29.726Z,100333.20
2019-03-21T12:43:59.416Z,100329.06
2019-03-21T12:46:29.166Z,100328.86
2019-03-21T12:48:58.868Z,100330.41
2019-03-21T12:51:28.672Z,100320.58
2019-03-21T12:53:58.386Z,100320.63
2019-03-21T12:56:28.083Z,100323.95
2019-03-21T12:58:57.779Z,100317.03
2019-03-21T13:01:27.650Z,100311.79
2019-03-21T13:03:57.544Z,100309.03
2019-03-21T13:06:27.231Z,100313.00
2019-03-21T13:08:56.933Z,100310.84
2019-03-21T13:11:26.624Z,100305.86
2019-03-21T13:13:56.618Z,100304.14
2019-03-21T13:16:26.452Z,100298.40
2019-03-21T13:18:56.275Z,100300.90
2019-03-21T13:21:26.017Z,100295.48
2019-03-21T13:23:55.945Z,100287.83
2019-03-21T13:26:25.814Z,100285.23
2019-03-21T13:28:55.542Z,100275.72
2019-03-21T13:31:25.278Z,100281.14
2019-03-21T13:33:55.066Z,100271.48
2019-03-21T13:36:24.751Z,100275.41
2019-03-21T13:38:54.656Z,100271.92
2019-03-21T13:41:24.314Z,100270.39
2019-03-21T13:43:54.122Z,100271.47
2019-03-21T13:46:23.879Z,100271.65
2019-03-21T13:48:53.565Z,100271.52
2019-03-21T13:51:23.310Z,100265.55
2019-03-21T13:53:53.018Z,100261.45
2019-03-21T13:56:22.718Z,100263.95
2019-03-21T13:58:54.490Z,100258.92
2019-03-21T14:01:26.235Z,100254.66
2019-03-21T14:03:57.134Z,100249.14
2019-03-21T14:06:47.911Z,100245.62
2019-03-21T14:09:20.157Z,100247.10
2019-03-21T14:11:49.177Z,100246.17
2019-03-21T14:14:18.926Z,100248.94
2019-03-21T14:16:51.025Z,100245.45
2019-03-21T14:19:20.739Z,100242.20
2019-03-21T14:21:50.430Z,100242.47
2019-03-21T14:24:20.110Z,100235.12
2019-03-21T14:26:49.855Z,100237.22
2019-03-21T14:29:20.568Z,100233.56
2019-03-21T14:31:50.575Z,100235.33
2019-03-21T14:34:20.238Z,100228.66
2019-03-21T14:36:50.042Z,100224.56
2019-03-21T14:39:19.773Z,100225.36
2019-03-21T14:41:49.492Z,100221.38
2019-03-21T14:44:19.156Z,100214.86
2019-03-21T14:46:48.860Z,100221.82
2019-03-21T14:49:18.510Z,100218.79
2019-03-21T14:51:48.208Z,100223.66
2019-03-21T14:54:17.997Z,100217.53
2019-03-21T14:56:47.703Z,100221.82
2019-03-21T14:59:17.358Z,100222.99
2019-03-21T15:01:47.287Z,100223.28
2019-03-21T15:04:16.979Z,100222.94
2019-03-21T15:06:46.705Z,100224.48
2019-03-21T15:09:16.451Z,100222.50
2019-03-21T15:11:47.378Z,100215.06
2019-03-21T15:14:17.109Z,100213.73
2019-03-21T15:16:46.897Z,100209.70
2019-03-21T15:19:16.584Z,100212.17
2019-03-21T15:21:46.260Z,100204.86
2019-03-21T15:24:15.942Z,100202.14
2019-03-21T15:26:45.605Z,100201.00
2019-03-21T15:29:15.328Z,100201.94
2019-03-21T15:31:44.985Z,100200.95
2019-03-21T15:34:14.746Z,100200.81
2019-03-21T15:36:44.492Z,100207.18
2019-03-21T15:39:14.341Z,100199.87
2019-03-21T15:41:44.230Z,100201.62
2019-03-21T15:44:13.926Z,100194.17
2019-03-21T15:46:43.598Z,100191.09
2019-03-21T15:49:13.377Z,100183.83
2019-03-21T15:51:43.060Z,100185.17
2019-03-21T15:54:12.929Z,100191.23
2019-03-21T15:56:43.061Z,100187.94
2019-03-21T15:59:12.903Z,100184.41
2019-03-21T16:01:42.802Z,100189.56
2019-03-21T16:04:12.559Z,100192.07
2019-03-21T16:06:42.306Z,100191.12
2019-03-21T16:09:12.145Z,100189.61
2019-03-21T16:11:41.872Z,100191.35
2019-03-21T16:14:11.591Z,100192.43
2019-03-21T16:16:41.286Z,100192.66
2019-03-21T16:19:10.997Z,100193.67
2019-03-21T16:21:40.720Z,100194.03
2019-03-21T16:24:12.304Z,100194.52
2019-03-21T16:26:42.597Z,100192.47
2019-03-21T16:29:12.305Z,100192.20
2019-03-21T16:31:42.326Z,100191.97
2019-03-21T16:34:12.093Z,100188.20
2019-03-21T16:36:41.841Z,100190.30
2019-03-21T16:39:11.578Z,100191.34
2019-03-21T16:41:41.397Z,100192.61
2019-03-21T16:44:11.215Z,100192.19
2019-03-21T16:46:41.280Z,100188.88
2019-03-21T16:49:11.111Z,100195.23
2019-03-21T16:51:43.361Z,100198.76
2019-03-21T16:54:17.248Z,100191.44
2019-03-21T16:56:46.123Z,100186.31
2019-03-21T16:59:15.886Z,100195.14
2019-03-21T17:01:45.639Z,100196.18
2019-03-21T17:04:15.436Z,100193.00
2019-03-21T17:06:45.404Z,100203.17
2019-03-21T17:09:15.211Z,100208.91
2019-03-21T17:11:45.348Z,100208.86
2019-03-21T17:14:17.909Z,100212.59
2019-03-21T17:16:47.559Z,100211.84
2019-03-21T17:19:17.287Z,100207.23
2019-03-21T17:21:47.633Z,100210.30
2019-03-21T17:24:28.894Z,100213.33
2019-03-21T17:26:49.236Z,100214.72
2019-03-21T17:29:19.013Z,100213.18
2019-03-21T17:31:48.695Z,100221.70
2019-03-21T17:34:18.372Z,100228.05
2019-03-21T17:36:48.045Z,100227.05
2019-03-21T17:39:17.898Z,100227.27
2019-03-21T17:41:47.561Z,100231.91
2019-03-21T17:44:17.252Z,100228.77
2019-03-21T17:46:46.921Z,100229.02
2019-03-21T17:49:16.662Z,100225.22
2019-03-21T17:51:46.753Z,100228.92
2019-03-21T17:54:16.884Z,100227.11
2019-03-21T17:56:46.575Z,100223.53
2019-03-21T17:59:16.747Z,100224.64
2019-03-21T18:01:46.401Z,100227.80
2019-03-21T18:04:16.588Z,100230.30
2019-03-21T18:06:46.250Z,100231.50
2019-03-21T18:09:16.024Z,100228.26
2019-03-21T18:11:45.724Z,100237.34
2019-03-21T18:14:15.447Z,100240.97
2019-03-21T18:16:45.197Z,100241.44
2019-03-21T18:19:14.911Z,100241.47
2019-03-21T18:21:44.564Z,100243.94
2019-03-21T18:24:14.281Z,100247.58
2019-03-21T18:26:44.287Z,100246.63
2019-03-21T18:29:14.026Z,100248.43
2019-03-21T18:31:43.717Z,100248.43
2019-03-21T18:34:13.305Z,100248.91
2019-03-21T18:36:43.092Z,100251.56
2019-03-21T18:39:14.370Z,100257.53
2019-03-21T18:41:44.209Z,100259.62
2019-03-21T18:44:13.871Z,100257.78
2019-03-21T18:46:43.581Z,100257.28
2019-03-21T18:49:13.335Z,100259.66
2019-03-21T18:51:43.120Z,100258.80
2019-03-21T18:54:12.877Z,100267.58
2019-03-21T18:56:42.749Z,100256.64
2019-03-21T18:59:12.417Z,100270.39
2019-03-21T19:01:42.132Z,100269.21
2019-03-21T19:04:11.883Z,100268.87
2019-03-21T19:06:41.594Z,100266.01
2019-03-21T19:09:12.471Z,100269.25
2019-03-21T19:11:42.174Z,100266.44
2019-03-21T19:14:12.081Z,100262.72
2019-03-21T19:16:41.811Z,100260.04
2019-03-21T19:19:12.168Z,100260.22
2019-03-21T19:21:41.977Z,100262.80
2019-03-21T19:24:11.846Z,100258.36
2019-03-21T19:26:41.617Z,100255.59
2019-03-21T19:29:11.281Z,100254.34
2019-03-21T19:31:41.645Z,100255.81
2019-03-21T19:34:11.428Z,100262.88
2019-03-21T19:36:41.133Z,100264.03
2019-03-21T19:39:11.277Z,100263.59
2019-03-21T19:41:40.965Z,100257.42
2019-03-21T19:44:10.645Z,100256.48
2019-03-21T19:46:40.458Z,100243.45
2019-03-21T19:49:10.320Z,100260.83
2019-03-21T19:51:40.040Z,100260.06
2019-03-21T19:54:09.829Z,100260.06
2019-03-21T19:56:39.541Z,100259.38
2019-03-21T19:59:09.486Z,100265.64
2019-03-21T20:01:39.257Z,100269.48
2019-03-21T20:04:08.905Z,100268.41
2019-03-21T20:06:38.767Z,100265.86
2019-03-21T20:09:09.008Z,100264.05
2019-03-21T20:11:38.779Z,100269.91
2019-03-21T20:14:09.046Z,100269.91
2019-03-21T20:16:38.739Z,100266.48
2019-03-21T20:19:29.398Z,100270.78
2019-03-21T20:21:59.562Z,100270.78
2019-03-21T20:24:29.275Z,100277.19
2019-03-21T20:27:00.500Z,100277.19
2019-03-21T20:29:30.393Z,100273.55
2019-03-21T20:32:00.149Z,100279.65
2019-03-21T20:34:29.877Z,100272.45
2019-03-21T20:37:00.581Z,100279.52
2019-03-21T20:39:30.675Z,100285.44
2019-03-21T20:42:00.432Z,100278.10
2019-03-21T20:44:30.130Z,100278.10
2019-03-21T20:47:00.068Z,100279.47
2019-03-21T20:49:29.925Z,100281.77
2019-03-21T20:51:59.751Z,100283.00
2019-03-21T20:54:29.475Z,100283.28
2019-03-21T20:56:59.546Z,100287.34
2019-03-21T20:59:29.304Z,100284.39
2019-03-21T21:02:02.903Z,100284.14
2019-03-21T21:04:30.740Z,100280.58
2019-03-21T21:07:00.607Z,100280.04
2019-03-21T21:09:30.791Z,100288.84
2019-03-21T21:12:00.517Z,100286.92
2019-03-21T21:14:30.498Z,100287.23
2019-03-21T21:17:00.207Z,100292.23
2019-03-21T21:19:29.877Z,100286.66
2019-03-21T21:21:59.632Z,100291.21
2019-03-21T21:24:29.316Z,100280.97
2019-03-21T21:26:59.020Z,100281.91
2019-03-21T21:29:28.695Z,100286.92
2019-03-21T21:31:58.516Z,100287.16
2019-03-21T21:34:28.281Z,100283.95
2019-03-21T21:36:57.922Z,100285.68
2019-03-21T21:39:27.643Z,100285.59
2019-03-21T21:41:57.383Z,100285.51
2019-03-21T21:44:27.450Z,100286.66
2019-03-21T21:46:57.148Z,100292.73
2019-03-21T21:49:26.974Z,100293.63
2019-03-21T21:51:56.779Z,100294.41
2019-03-21T21:54:26.465Z,100291.57
2019-03-21T21:56:56.149Z,100291.83
2019-03-21T21:59:25.824Z,100286.52
2019-03-21T22:01:55.544Z,100284.02
2019-03-21T22:04:25.221Z,100280.59
2019-03-21T22:06:55.164Z,100278.64
2019-03-21T22:09:24.830Z,100281.60
2019-03-21T22:11:54.750Z,100276.30
2019-03-21T22:14:24.543Z,100274.98
2019-03-21T22:16:54.232Z,100274.48
2019-03-21T22:19:24.153Z,100277.36
2019-03-21T22:21:53.893Z,100279.27
2019-03-21T22:24:23.573Z,100282.06
2019-03-21T22:26:53.280Z,100283.80
2019-03-21T22:29:22.953Z,100290.28
2019-03-21T22:31:52.664Z,100284.86
2019-03-21T22:34:22.349Z,100284.17
2019-03-21T22:36:52.068Z,100292.20
2019-03-21T22:39:21.765Z,100287.16
2019-03-21T22:41:51.550Z,100282.39
2019-03-21T22:44:21.255Z,100284.20
2019-03-21T22:46:51.014Z,100281.01
2019-03-21T22:49:20.735Z,100286.52
2019-03-21T22:51:50.400Z,100291.34
2019-03-21T22:54:20.121Z,100291.14
2019-03-21T22:56:49.803Z,100292.69
2019-03-21T22:59:19.519Z,100287.93
2019-03-21T23:01:49.345Z,100287.56
2019-03-21T23:04:19.107Z,100283.03
2019-03-21T23:06:48.817Z,100281.25
2019-03-21T23:09:18.603Z,100271.20
2019-03-21T23:11:48.443Z,100277.28
2019-03-21T23:14:18.556Z,100271.79
2019-03-21T23:16:48.224Z,100266.90
2019-03-21T23:19:18.002Z,100273.29
2019-03-21T23:21:47.778Z,100266.81
2019-03-21T23:24:17.489Z,100270.27
2019-03-21T23:26:52.946Z,100261.51
2019-03-21T23:29:19.147Z,100252.65
2019-03-21T23:31:48.882Z,100254.97
2019-03-21T23:34:18.588Z,100254.72
2019-03-21T23:36:48.248Z,100256.16
2019-03-21T23:39:18.381Z,100258.10
2019-03-21T23:41:48.065Z,100259.41
2019-03-21T23:44:17.736Z,100257.77
2019-03-21T23:46:47.608Z,100251.70
2019-03-21T23:49:17.269Z,100250.69
2019-03-21T23:51:46.963Z,100255.55
2019-03-21T23:54:16.746Z,100246.14
2019-03-21T23:56:46.417Z,100247.57
2019-03-21T23:59:16.115Z,100247.50
